Time;durP1;ratioP1;P1;durP2;ratioP2;P2;SDS_P1;SDS_P2;PMS_P1;PMS_P2;Temp;Humidity;BMP_temperature;BMP_pressure;BME280_temperature;BME280_humidity;BME280_pressure;Samples;Min_cycle;Max_cycle;Signal;HPM_P1;HPM_P2
2022/07/12 00:01:57;;;;;;;7.00;5.68;;;29.80;99.90;;;;;;4992224;28;20373;-46
2022/07/12 00:04:23;;;;;;;6.88;5.45;;;29.80;99.90;;;;;;4992346;28;20046;-46
2022/07/12 00:06:49;;;;;;;6.68;5.32;;;29.70;99.90;;;;;;4992016;28;20080;-46
2022/07/12 00:09:14;;;;;;;8.77;6.18;;;29.70;99.90;;;;;;4992219;28;20026;-46
2022/07/12 00:11:41;;;;;;;7.75;5.50;;;29.70;99.90;;;;;;4974419;28;20034;-46
2022/07/12 00:14:09;;;;;;;7.25;5.45;;;29.70;99.90;;;;;;4991910;28;20449;-46
2022/07/12 00:16:35;;;;;;;7.03;5.53;;;29.70;99.90;;;;;;4991861;28;20034;-46
2022/07/12 00:19:01;;;;;;;6.97;5.70;;;29.70;99.90;;;;;;4991844;28;20030;-46
2022/07/12 00:21:28;;;;;;;6.00;5.10;;;29.70;99.90;;;;;;4992013;28;20130;-46
2022/07/12 00:23:54;;;;;;;7.00;5.65;;;29.70;99.90;;;;;;4991929;28;20019;-46
2022/07/12 00:26:20;;;;;;;7.38;5.35;;;29.70;99.90;;;;;;4992053;28;20038;-46
2022/07/12 00:28:46;;;;;;;6.25;5.28;;;29.70;99.90;;;;;;4974254;28;20076;-46
2022/07/12 00:31:11;;;;;;;6.05;4.65;;;29.70;99.90;;;;;;4991947;28;20026;-46
2022/07/12 00:33:37;;;;;;;6.70;4.97;;;29.70;99.90;;;;;;4991880;28;20423;-46
2022/07/12 00:36:04;;;;;;;6.20;4.93;;;29.70;99.90;;;;;;4991696;28;20030;-46
2022/07/12 00:38:30;;;;;;;6.03;4.88;;;29.70;99.90;;;;;;4991721;28;20030;-46
2022/07/12 00:40:55;;;;;;;6.97;5.00;;;29.70;99.90;;;;;;4991962;28;20037;-46
2022/07/12 00:43:21;;;;;;;6.53;5.38;;;29.70;99.90;;;;;;4991652;28;20540;-45
2022/07/12 00:45:47;;;;;;;7.30;4.75;;;29.70;99.90;;;;;;4991685;28;20435;-46
2022/07/12 00:48:13;;;;;;;6.63;4.30;;;29.70;99.90;;;;;;4991795;28;20033;-46
2022/07/12 00:50:39;;;;;;;5.22;4.25;;;29.60;99.90;;;;;;4991793;28;20465;-46
2022/07/12 00:53:05;;;;;;;7.90;5.43;;;29.70;99.90;;;;;;4974292;28;20062;-46
2022/07/12 00:55:31;;;;;;;5.70;4.80;;;29.70;99.90;;;;;;4991663;28;20022;-46
2022/07/12 00:57:57;;;;;;;5.90;5.30;;;29.70;99.90;;;;;;4991989;28;20026;-46
2022/07/12 01:00:28;;;;;;;7.45;4.85;;;29.70;99.90;;;;;;4992113;28;20050;-46
2022/07/12 01:03:00;;;;;;;6.18;5.10;;;29.70;99.90;;;;;;4994087;28;20114;-45
2022/07/12 01:05:28;;;;;;;5.93;4.50;;;29.70;99.90;;;;;;4995741;28;20030;-46
2022/07/12 01:07:54;;;;;;;5.90;4.72;;;29.60;99.90;;;;;;4995572;28;20015;-46
2022/07/12 01:10:21;;;;;;;5.97;4.72;;;29.60;99.90;;;;;;4995412;28;20049;-45
2022/07/12 01:12:46;;;;;;;5.95;4.85;;;29.70;99.90;;;;;;4995160;28;20038;-45
2022/07/12 01:15:12;;;;;;;5.07;4.57;;;29.60;99.90;;;;;;4995449;28;20034;-47
2022/07/12 01:17:39;;;;;;;5.28;3.88;;;29.60;99.90;;;;;;4995393;28;20539;-45
2022/07/12 01:20:06;;;;;;;6.63;5.33;;;29.60;99.90;;;;;;4995273;28;20469;-45
2022/07/12 01:22:34;;;;;;;5.82;4.90;;;29.60;99.90;;;;;;4995258;28;20030;-45
2022/07/12 01:25:02;;;;;;;5.28;4.60;;;29.60;99.90;;;;;;4995395;28;20049;-46
2022/07/12 01:27:29;;;;;;;5.10;4.20;;;29.60;99.90;;;;;;4995327;28;20022;-45
2022/07/12 01:29:55;;;;;;;7.10;5.10;;;29.60;99.90;;;;;;4995191;28;20464;-45
2022/07/12 01:32:24;;;;;;;6.28;4.50;;;29.60;99.90;;;;;;4994938;28;20042;-45
2022/07/12 01:34:52;;;;;;;6.50;4.50;;;29.60;99.90;;;;;;4995059;28;20031;-45
2022/07/12 01:37:19;;;;;;;5.95;4.38;;;29.60;99.90;;;;;;4995052;28;20526;-45
2022/07/12 01:39:46;;;;;;;5.00;3.97;;;29.60;99.90;;;;;;4994964;28;20480;-45
2022/07/12 01:42:12;;;;;;;5.28;3.92;;;29.60;99.90;;;;;;4994964;28;20026;-45
2022/07/12 01:44:38;;;;;;;5.45;4.03;;;29.60;99.90;;;;;;4994904;28;20032;-45
2022/07/12 01:47:04;;;;;;;5.50;4.60;;;29.60;99.90;;;;;;4994794;28;20357;-46
2022/07/12 01:49:30;;;;;;;5.32;3.63;;;29.60;99.90;;;;;;4994847;28;20026;-46
2022/07/12 01:51:57;;;;;;;4.82;4.18;;;29.60;99.90;;;;;;4994683;28;20392;-45
2022/07/12 01:54:24;;;;;;;5.38;4.20;;;29.60;99.90;;;;;;4994583;28;20053;-45
2022/07/12 01:56:51;;;;;;;5.43;3.65;;;29.60;99.90;;;;;;4994639;28;20034;-45
2022/07/12 01:59:18;;;;;;;5.30;4.15;;;29.60;99.90;;;;;;4995024;28;20027;-46
2022/07/12 02:01:45;;;;;;;5.50;3.75;;;29.60;99.90;;;;;;4994497;28;20115;-45
2022/07/12 02:04:11;;;;;;;5.60;4.32;;;29.60;99.90;;;;;;4994596;28;20484;-46
2022/07/12 02:06:38;;;;;;;4.50;3.90;;;29.60;99.90;;;;;;4994576;28;20084;-46
2022/07/12 02:09:04;;;;;;;;;;;29.60;99.90;;;;;;4994924;28;20491;-45
2022/07/12 02:11:30;;;;;;;5.25;4.28;;;29.60;99.90;;;;;;4994536;28;19906;-46
2022/07/12 02:13:56;;;;;;;4.20;3.80;;;29.60;99.90;;;;;;4993978;28;20026;-46
2022/07/12 02:16:22;;;;;;;5.32;4.05;;;29.60;99.90;;;;;;4994305;28;20026;-45
2022/07/12 02:18:47;;;;;;;5.32;4.25;;;29.60;99.90;;;;;;4994281;28;20373;-46
2022/07/12 02:21:13;;;;;;;4.20;3.30;;;29.60;99.90;;;;;;4994306;28;20515;-46
2022/07/12 02:23:39;;;;;;;4.38;3.42;;;29.60;99.90;;;;;;4994267;28;20038;-46
2022/07/12 02:26:04;;;;;;;4.38;3.78;;;29.50;99.90;;;;;;4994254;28;20511;-46
2022/07/12 02:28:31;;;;;;;4.57;3.55;;;29.50;99.90;;;;;;4994360;28;20030;-45
2022/07/12 02:30:57;;;;;;;4.47;3.50;;;29.50;99.90;;;;;;4994081;28;20027;-46
2022/07/12 02:33:23;;;;;;;5.13;4.10;;;29.60;99.90;;;;;;4993899;28;20050;-45
2022/07/12 02:35:49;;;;;;;3.95;3.05;;;29.50;99.90;;;;;;4994008;28;20053;-46
2022/07/12 02:38:15;;;;;;;4.47;3.40;;;29.50;99.90;;;;;;4993770;28;20053;-46
2022/07/12 02:40:55;;;;;;;4.47;3.83;;;29.50;99.90;;;;;;4994113;28;20045;-46
2022/07/12 02:43:25;;;;;;;3.83;3.30;;;29.50;99.90;;;;;;4993833;28;20101;-46
2022/07/12 02:45:58;;;;;;;3.70;3.22;;;29.50;99.90;;;;;;4993785;28;20028;-45
2022/07/12 02:48:24;;;;;;;4.47;3.88;;;29.50;99.90;;;;;;4993818;28;20472;-46
2022/07/12 02:50:50;;;;;;;4.50;3.13;;;29.50;99.90;;;;;;4993593;28;20455;-46
2022/07/12 02:53:16;;;;;;;3.78;3.08;;;29.50;99.90;;;;;;4993540;28;20113;-46
2022/07/12 02:55:41;;;;;;;4.05;3.42;;;29.50;99.90;;;;;;4993717;28;20022;-45
2022/07/12 02:58:08;;;;;;;3.35;3.05;;;29.50;99.90;;;;;;4993549;28;20026;-46
2022/07/12 03:00:35;;;;;;;4.28;3.25;;;29.50;99.90;;;;;;4976542;28;20050;-46
2022/07/12 03:03:01;;;;;;;5.20;3.40;;;29.50;99.90;;;;;;4993596;28;20035;-45
2022/07/12 03:05:27;;;;;;;6.80;3.75;;;29.50;99.90;;;;;;4993485;28;20113;-46
2022/07/12 03:07:53;;;;;;;4.28;3.20;;;29.50;99.90;;;;;;4993660;28;20443;-45
2022/07/12 03:10:19;;;;;;;3.75;3.05;;;29.50;99.90;;;;;;4976004;28;20026;-46
2022/07/12 03:12:45;;;;;;;4.13;3.42;;;29.50;99.90;;;;;;4993130;28;20038;-45
2022/07/12 03:15:11;;;;;;;3.80;3.00;;;29.50;99.90;;;;;;4993324;28;20026;-45
2022/07/12 03:17:37;;;;;;;3.20;2.85;;;29.50;99.90;;;;;;4993148;28;20476;-45
2022/07/12 03:20:06;;;;;;;3.60;3.03;;;29.40;99.90;;;;;;4993397;28;20097;-46
2022/07/12 03:22:31;;;;;;;3.17;2.80;;;29.40;99.90;;;;;;4975900;28;20018;-46
2022/07/12 03:24:57;;;;;;;3.35;3.00;;;29.40;99.90;;;;;;4992213;28;20053;-46
2022/07/12 03:27:23;;;;;;;4.10;3.20;;;29.40;99.90;;;;;;4992954;28;20472;-46
2022/07/12 03:29:49;;;;;;;3.47;2.95;;;29.50;99.90;;;;;;4993015;28;20042;-46
2022/07/12 03:32:15;;;;;;;3.65;2.80;;;29.40;99.90;;;;;;4992771;28;20049;-46
2022/07/12 03:34:41;;;;;;;4.80;3.10;;;29.50;99.90;;;;;;4993056;28;20023;-45
2022/07/12 03:37:06;;;;;;;3.53;2.88;;;29.40;99.90;;;;;;4993161;28;20453;-46
2022/07/12 03:39:32;;;;;;;3.38;2.95;;;29.40;99.90;;;;;;4992935;28;20030;-45
2022/07/12 03:41:58;;;;;;;4.13;3.10;;;29.40;99.90;;;;;;4992780;28;20113;-45
2022/07/12 03:44:24;;;;;;;4.00;2.95;;;29.40;99.90;;;;;;4992635;28;20062;-45
2022/07/12 03:46:49;;;;;;;3.92;3.13;;;29.40;99.90;;;;;;4992582;28;20086;-46
2022/07/12 03:49:15;;;;;;;3.50;2.63;;;29.40;99.90;;;;;;4992723;28;20026;-45
2022/07/12 03:51:41;;;;;;;2.97;2.50;;;29.40;99.90;;;;;;4992443;28;20045;-46
2022/07/12 03:54:07;;;;;;;3.35;2.85;;;29.40;99.90;;;;;;4992850;28;20027;-46
2022/07/12 03:59:22;;;;;;;4.28;3.03;;;29.40;99.90;;;;;;4992809;28;20126;-45
2022/07/12 04:01:47;;;;;;;3.30;2.53;;;29.40;99.90;;;;;;4993036;28;20076;-45
2022/07/12 04:04:13;;;;;;;3.35;2.50;;;29.40;99.90;;;;;;4992144;28;20435;-46
2022/07/12 04:06:39;;;;;;;3.13;2.83;;;29.40;99.90;;;;;;4992372;28;20030;-45
2022/07/12 04:09:06;;;;;;;3.33;2.60;;;29.40;99.90;;;;;;4992431;28;20057;-45
2022/07/12 04:11:32;;;;;;;3.92;3.13;;;29.40;99.90;;;;;;4992040;28;20030;-46
2022/07/12 04:13:58;;;;;;;3.10;2.72;;;29.40;99.90;;;;;;4992109;28;20026;-46
2022/07/12 04:16:24;;;;;;;2.72;2.50;;;29.30;99.90;;;;;;4992130;28;20033;-46
2022/07/12 04:18:50;;;;;;;3.35;2.70;;;29.30;99.90;;;;;;4991878;28;20030;-46
2022/07/12 04:21:16;;;;;;;3.45;2.88;;;29.30;99.90;;;;;;4992013;28;20030;-46
2022/07/12 04:23:41;;;;;;;3.83;2.70;;;29.30;99.90;;;;;;4991962;28;20029;-46
2022/07/12 04:26:07;;;;;;;2.63;2.40;;;29.30;99.90;;;;;;4992090;28;20053;-46
2022/07/12 04:28:35;;;;;;;3.25;2.53;;;29.30;99.90;;;;;;4991966;28;20018;-46
2022/07/12 04:31:00;;;;;;;;;;;29.30;99.90;;;;;;4992338;28;20492;-46
2022/07/12 04:33:26;;;;;;;3.28;2.45;;;29.30;99.90;;;;;;4991716;28;19961;-47
2022/07/12 04:35:52;;;;;;;3.22;2.35;;;29.30;99.90;;;;;;4991655;28;20460;-46
2022/07/12 04:38:17;;;;;;;3.17;2.65;;;29.30;99.90;;;;;;4991839;28;20026;-47
2022/07/12 04:40:43;;;;;;;3.78;2.40;;;29.30;99.90;;;;;;4991826;28;20126;-46
2022/07/12 04:43:09;;;;;;;2.90;2.60;;;29.30;99.90;;;;;;4991809;28;20532;-46
2022/07/12 04:45:35;;;;;;;3.15;2.60;;;29.30;99.90;;;;;;4991743;28;20061;-47
2022/07/12 04:48:00;;;;;;;3.15;2.60;;;29.30;99.90;;;;;;4991838;28;20487;-46
2022/07/12 04:50:26;;;;;;;3.30;2.92;;;29.30;99.90;;;;;;4991757;28;20019;-47
2022/07/12 04:52:52;;;;;;;3.65;2.90;;;29.30;99.90;;;;;;4991525;28;20046;-46
2022/07/12 04:55:18;;;;;;;4.30;3.20;;;29.30;99.90;;;;;;4991781;28;20096;-46
2022/07/12 04:57:44;;;;;;;4.32;3.75;;;29.30;99.90;;;;;;4991659;28;20038;-47
2022/07/12 05:00:10;;;;;;;4.07;3.53;;;29.30;99.90;;;;;;4991715;28;20046;-46
2022/07/12 05:02:36;;;;;;;6.90;3.67;;;29.30;99.90;;;;;;4991742;28;20023;-46
2022/07/12 05:05:03;;;;;;;4.70;3.20;;;29.30;99.90;;;;;;4991652;28;20503;-46
2022/07/12 05:07:29;;;;;;;4.10;3.50;;;29.20;99.90;;;;;;4991468;28;20033;-47
2022/07/12 05:09:54;;;;;;;4.20;3.47;;;29.30;99.90;;;;;;4958077;28;20026;-46
2022/07/12 05:12:20;;;;;;;5.03;3.80;;;29.30;99.90;;;;;;4991540;28;20377;-46
2022/07/12 05:14:46;;;;;;;5.13;3.38;;;29.20;99.90;;;;;;4991448;28;20072;-46
2022/07/12 05:17:12;;;;;;;5.78;3.95;;;29.30;99.90;;;;;;4991694;28;20085;-47
2022/07/12 05:19:38;;;;;;;3.50;3.08;;;29.30;99.90;;;;;;4991740;28;20103;-46
2022/07/12 05:22:04;;;;;;;4.30;3.28;;;29.30;99.90;;;;;;4991536;28;20033;-46
2022/07/12 05:24:30;;;;;;;4.38;3.50;;;29.30;99.90;;;;;;4991437;28;20023;-46
2022/07/12 05:26:56;;;;;;;3.80;3.22;;;29.20;99.90;;;;;;4991356;28;20030;-46
2022/07/12 05:29:22;;;;;;;4.28;3.40;;;29.20;99.90;;;;;;4991251;28;20052;-46
2022/07/12 05:31:48;;;;;;;5.05;3.67;;;29.20;99.90;;;;;;4991330;28;20054;-46
2022/07/12 05:34:14;;;;;;;4.85;3.58;;;29.20;99.90;;;;;;4991222;28;20105;-46
2022/07/12 05:36:40;;;;;;;4.07;3.35;;;29.20;99.90;;;;;;4991751;28;20062;-46
2022/07/12 05:39:06;;;;;;;4.47;3.40;;;29.20;99.90;;;;;;4991192;28;20498;-46
2022/07/12 05:41:32;;;;;;;4.32;3.65;;;29.20;99.90;;;;;;4991134;28;20030;-47
2022/07/12 05:43:58;;;;;;;4.72;3.70;;;29.20;99.90;;;;;;4991305;28;20097;-47
2022/07/12 05:46:24;;;;;;;3.75;2.90;;;29.20;99.90;;;;;;4991149;28;20058;-46
2022/07/12 05:48:50;;;;;;;3.80;2.97;;;29.20;99.90;;;;;;4993360;28;20030;-46
2022/07/12 05:54:00;;;;;;;5.05;3.42;;;29.20;99.90;;;;;;4995146;28;20069;-46
2022/07/12 05:56:26;;;;;;;3.70;3.10;;;29.20;99.90;;;;;;4994683;28;20023;-46
2022/07/12 05:58:52;;;;;;;4.35;3.45;;;29.20;99.90;;;;;;4994502;28;20472;-46
2022/07/12 06:01:18;;;;;;;3.23;2.93;;;29.20;99.90;;;;;;4994440;28;20051;-46
2022/07/12 06:03:44;;;;;;;5.78;3.10;;;29.20;99.90;;;;;;4994596;28;20037;-46
2022/07/12 06:06:10;;;;;;;3.85;3.15;;;29.20;99.90;;;;;;4994918;28;20023;-46
2022/07/12 06:08:35;;;;;;;5.25;3.17;;;29.20;99.90;;;;;;4994574;28;20061;-47
2022/07/12 06:11:01;;;;;;;4.10;3.38;;;29.20;99.90;;;;;;4994366;28;20022;-46
2022/07/12 06:13:28;;;;;;;4.07;2.80;;;29.20;99.90;;;;;;4994397;28;20469;-46
2022/07/12 06:15:58;;;;;;;3.45;2.85;;;29.20;99.90;;;;;;4994250;28;20065;-47
2022/07/12 06:18:25;;;;;;;3.28;2.80;;;29.20;99.90;;;;;;4994357;28;20034;-46
2022/07/12 06:20:51;;;;;;;5.32;3.28;;;29.20;99.90;;;;;;4994167;28;20022;-46
2022/07/12 06:23:17;;;;;;;4.35;2.88;;;29.20;99.90;;;;;;4994281;28;20030;-46
2022/07/12 06:25:43;;;;;;;4.55;3.45;;;29.20;99.90;;;;;;4994383;28;20096;-46
2022/07/12 06:28:09;;;;;;;4.60;3.22;;;29.20;99.90;;;;;;4994099;28;20113;-45
2022/07/12 06:30:35;;;;;;;3.95;3.33;;;29.20;99.90;;;;;;4994118;28;20018;-46
2022/07/12 06:33:01;;;;;;;4.35;3.05;;;29.20;99.90;;;;;;4993999;28;20526;-47
2022/07/12 06:35:27;;;;;;;4.22;3.25;;;29.30;99.90;;;;;;4993916;28;20396;-46
2022/07/12 06:37:53;;;;;;;3.88;3.00;;;29.20;99.90;;;;;;4993923;28;20022;-46
2022/07/12 06:40:19;;;;;;;6.72;3.53;;;29.20;99.90;;;;;;4993933;28;20487;-46
2022/07/12 06:42:45;;;;;;;4.72;3.10;;;29.30;99.90;;;;;;4994051;28;20022;-46
2022/07/12 06:45:11;;;;;;;3.75;3.08;;;29.30;99.90;;;;;;4993778;28;20125;-46
2022/07/12 06:47:37;;;;;;;6.85;3.78;;;29.30;99.90;;;;;;4993584;28;20141;-46
2022/07/12 06:50:04;;;;;;;5.72;4.05;;;29.30;99.90;;;;;;4993578;28;20117;-46
2022/07/12 06:52:30;;;;;;;4.70;3.28;;;29.30;99.90;;;;;;4993541;28;20046;-46
2022/07/12 06:54:56;;;;;;;3.92;3.30;;;29.30;99.90;;;;;;4993530;28;20035;-46
2022/07/12 06:57:22;;;;;;;4.55;3.40;;;29.30;99.90;;;;;;4993467;28;20034;-46
2022/07/12 06:59:48;;;;;;;4.85;3.95;;;29.30;99.90;;;;;;4992090;28;20046;-46
2022/07/12 07:02:15;;;;;;;4.07;3.40;;;29.30;99.90;;;;;;4993674;28;20030;-46
2022/07/12 07:04:40;;;;;;;5.00;3.60;;;29.30;99.90;;;;;;4993313;28;20109;-46
2022/07/12 07:07:06;;;;;;;5.10;3.90;;;29.30;99.90;;;;;;4993401;28;20109;-46
2022/07/12 07:09:33;;;;;;;4.75;3.50;;;29.30;99.90;;;;;;4993243;28;20022;-46
2022/07/12 07:12:00;;;;;;;4.78;3.78;;;29.30;99.90;;;;;;4993170;28;20436;-46
2022/07/12 07:14:26;;;;;;;5.22;3.53;;;29.30;99.90;;;;;;4993179;28;20026;-47
2022/07/12 07:16:53;;;;;;;5.57;4.00;;;29.30;99.90;;;;;;4975832;28;20396;-46
2022/07/12 07:19:19;;;;;;;4.63;3.72;;;29.30;99.90;;;;;;4993195;28;20049;-47
2022/07/12 07:21:44;;;;;;;4.65;3.58;;;29.30;99.90;;;;;;4993300;28;20539;-46
2022/07/12 07:24:10;;;;;;;4.85;3.83;;;29.30;99.90;;;;;;4992899;28;20026;-46
2022/07/12 07:26:36;;;;;;;6.75;4.32;;;29.30;99.90;;;;;;4992929;28;20124;-46
2022/07/12 07:31:57;;;;;;;5.65;3.75;;;29.30;99.90;;;;;;4939368;28;20036;-46
2022/07/12 07:34:23;;;;;;;5.57;3.50;;;29.40;99.90;;;;;;4992687;28;20038;-46
2022/07/12 07:36:50;;;;;;;4.25;3.20;;;29.40;99.90;;;;;;4992751;28;20015;-46
2022/07/12 07:39:16;;;;;;;4.65;4.18;;;29.40;99.90;;;;;;4993129;28;20022;-46
2022/07/12 07:41:42;;;;;;;4.25;3.63;;;29.40;99.90;;;;;;4992650;28;20109;-46
2022/07/12 07:44:08;;;;;;;4.38;3.10;;;29.40;99.90;;;;;;4992486;28;20026;-46
2022/07/12 07:46:33;;;;;;;4.75;3.30;;;29.40;99.90;;;;;;4992638;28;20048;-46
2022/07/12 07:48:59;;;;;;;5.43;3.67;;;29.40;99.90;;;;;;4992396;28;20391;-46
2022/07/12 07:51:25;;;;;;;5.63;3.22;;;29.40;99.90;;;;;;4992522;28;20077;-46
2022/07/12 07:53:51;;;;;;;5.43;3.33;;;29.50;99.90;;;;;;4992261;28;20117;-46
2022/07/12 07:56:16;;;;;;;5.65;3.67;;;29.40;99.90;;;;;;4975245;28;20049;-47
2022/07/12 07:58:42;;;;;;;4.55;3.25;;;29.40;99.90;;;;;;4992332;28;20030;-46
2022/07/12 08:01:08;;;;;;;4.13;3.72;;;29.50;99.90;;;;;;4992091;28;20049;-47
2022/07/12 08:03:34;;;;;;;6.45;4.90;;;29.50;99.90;;;;;;4974930;28;20019;-46
2022/07/12 08:06:00;;;;;;;4.68;3.85;;;29.50;99.90;;;;;;4992166;28;20030;-46
2022/07/12 08:08:27;;;;;;;6.00;4.25;;;29.50;99.90;;;;;;4992016;28;20030;-46
2022/07/12 08:10:54;;;;;;;4.07;3.28;;;29.50;99.90;;;;;;4991734;28;20034;-46
2022/07/12 08:13:20;;;;;;;5.43;4.30;;;29.50;99.90;;;;;;4992206;28;20476;-46
2022/07/12 08:15:45;;;;;;;5.15;3.78;;;29.50;99.90;;;;;;4991989;28;20256;-46
2022/07/12 08:18:11;;;;;;;6.03;3.40;;;29.50;99.90;;;;;;4991916;28;20472;-46
2022/07/12 08:20:37;;;;;;;4.63;3.55;;;29.50;99.90;;;;;;4992021;28;20022;-46
2022/07/12 08:23:03;;;;;;;7.85;4.43;;;29.50;99.90;;;;;;4958362;28;20453;-46
2022/07/12 08:25:29;;;;;;;4.90;3.38;;;29.50;99.90;;;;;;4974447;28;20029;-46
2022/07/12 08:27:54;;;;;;;4.78;3.28;;;29.50;99.90;;;;;;4992020;28;20444;-45
2022/07/12 08:30:20;;;;;;;4.40;3.30;;;29.50;99.90;;;;;;4992072;28;20026;-46
2022/07/12 08:32:47;;;;;;;4.72;3.83;;;29.50;99.90;;;;;;4991694;28;20041;-46
2022/07/12 08:35:14;;;;;;;5.35;3.33;;;29.50;99.90;;;;;;4991879;28;20534;-46
2022/07/12 08:37:41;;;;;;;3.47;3.15;;;29.50;99.90;;;;;;4991789;28;20057;-46
2022/07/12 08:40:07;;;;;;;7.60;3.95;;;29.50;99.90;;;;;;4991731;28;20515;-45
2022/07/12 08:42:36;;;;;;;6.43;3.30;;;29.50;99.90;;;;;;4991723;28;20092;-46
2022/07/12 08:45:01;;;;;;;4.22;3.00;;;29.50;99.90;;;;;;4991607;28;20093;-46
2022/07/12 08:47:27;;;;;;;6.28;3.35;;;29.50;99.90;;;;;;4991551;28;20381;-46
2022/07/12 08:50:13;;;;;;;4.20;2.83;;;29.50;99.90;;;;;;4991675;28;20026;-46
2022/07/12 08:52:41;;;;;;;3.97;2.47;;;29.50;99.90;;;;;;4974099;28;20035;-46
2022/07/12 08:55:17;;;;;;;4.60;3.10;;;29.60;99.90;;;;;;4992262;28;20018;-46
2022/07/12 08:57:42;;;;;;;6.90;3.15;;;29.60;99.90;;;;;;4991517;28;20069;-46
2022/07/12 09:00:09;;;;;;;4.72;2.65;;;29.60;99.90;;;;;;4991346;28;20054;-46
2022/07/12 09:02:49;;;;;;;4.72;3.22;;;29.60;99.90;;;;;;4991613;28;20029;-45
2022/07/12 09:05:16;;;;;;;5.45;2.83;;;29.60;99.90;;;;;;4991514;28;20416;-46
2022/07/12 09:07:43;;;;;;;5.28;3.40;;;29.60;99.90;;;;;;4991575;28;20030;-46
2022/07/12 09:10:11;;;;;;;6.67;3.80;;;29.60;99.90;;;;;;4991542;28;20026;-46
2022/07/12 09:12:37;;;;;;;5.03;3.05;;;29.60;99.90;;;;;;4991307;28;20042;-46
2022/07/12 09:15:20;;;;;;;4.75;3.03;;;29.60;99.90;;;;;;4991637;28;20026;-46
2022/07/12 09:17:57;;;;;;;4.93;3.47;;;29.60;99.90;;;;;;4991423;28;20027;-46
2022/07/12 09:20:24;;;;;;;6.30;3.80;;;29.60;99.90;;;;;;4991582;28;20109;-46
2022/07/12 09:23:17;;;;;;;4.22;2.88;;;29.60;99.90;;;;;;4992290;28;20033;-46
2022/07/12 09:25:48;;;;;;;4.95;3.10;;;29.60;99.90;;;;;;4991633;28;20045;-45
2022/07/12 09:28:15;;;;;;;3.15;2.38;;;29.60;99.90;;;;;;4995075;28;20025;-46
2022/07/12 09:30:49;;;;;;;5.65;2.83;;;29.60;99.90;;;;;;4995157;28;20037;-46
2022/07/12 09:36:06;;;;;;;8.95;3.42;;;29.60;99.90;;;;;;4995295;28;20033;-46
2022/07/12 09:38:33;;;;;;;3.67;2.70;;;29.60;99.90;;;;;;4995047;28;20026;-46
2022/07/12 09:40:59;;;;;;;7.30;3.28;;;29.60;99.90;;;;;;4977395;28;20456;-46
2022/07/12 09:43:26;;;;;;;3.65;2.55;;;29.60;99.90;;;;;;4995107;28;20077;-46
2022/07/12 09:45:53;;;;;;;4.55;2.92;;;29.60;99.90;;;;;;4995070;28;20026;-46
2022/07/12 09:48:22;;;;;;;3.30;2.47;;;29.70;99.90;;;;;;4994861;28;20440;-46
2022/07/12 09:50:52;;;;;;;6.57;2.70;;;29.60;99.90;;;;;;4994741;28;20080;-46
2022/07/12 09:53:43;;;;;;;5.13;3.05;;;29.60;99.90;;;;;;4994738;28;20027;-46
2022/07/12 09:56:11;;;;;;;4.28;2.95;;;29.60;99.90;;;;;;4985367;28;20035;-46
2022/07/12 09:58:43;;;;;;;5.55;3.05;;;29.70;99.90;;;;;;4977311;28;20101;-45
2022/07/12 10:01:10;;;;;;;7.03;3.25;;;29.70;99.90;;;;;;4994548;28;20042;-45
2022/07/12 10:03:39;;;;;;;6.50;3.15;;;29.70;99.90;;;;;;4994412;28;20591;-45
2022/07/12 10:06:07;;;;;;;4.38;2.78;;;29.70;99.90;;;;;;4994381;28;20030;-44
2022/07/12 10:08:34;;;;;;;;;;;29.70;99.90;;;;;;4994726;28;20093;-45
2022/07/12 10:11:01;;;;;;;5.97;3.70;;;29.70;99.90;;;;;;4994254;28;19943;-44
2022/07/12 10:13:27;;;;;;;5.70;3.25;;;29.70;99.90;;;;;;4994414;28;20038;-45
2022/07/12 10:16:02;;;;;;;5.13;3.73;;;29.70;99.90;;;;;;4994344;28;20030;-45
2022/07/12 10:18:29;;;;;;;7.38;3.50;;;29.70;99.90;;;;;;4994298;28;20057;-45
2022/07/12 10:20:55;;;;;;;6.85;3.78;;;29.70;99.90;;;;;;4994384;28;20022;-46
2022/07/12 10:23:33;;;;;;;4.70;3.15;;;29.70;99.90;;;;;;4994235;28;20037;-45
2022/07/12 10:26:00;;;;;;;6.00;2.72;;;29.70;99.90;;;;;;4994112;28;20469;-45
2022/07/12 10:28:55;;;;;;;6.80;5.05;;;29.80;99.90;;;;;;4994306;28;20033;-45
2022/07/12 10:31:24;;;;;;;5.68;3.88;;;29.80;99.90;;;;;;4993912;28;20030;-45
2022/07/12 10:34:07;;;;;;;7.13;3.75;;;29.80;99.90;;;;;;4993569;28;20108;-45
2022/07/12 10:36:56;;;;;;;5.32;3.47;;;29.80;99.90;;;;;;4993783;28;20030;-45
2022/07/12 10:39:23;;;;;;;4.05;3.00;;;29.80;99.90;;;;;;4993725;28;20269;-46
2022/07/12 10:42:15;;;;;;;6.38;3.28;;;29.80;99.90;;;;;;4993982;28;20027;-45
2022/07/12 10:44:44;;;;;;;6.53;3.65;;;29.80;99.90;;;;;;4993680;28;20065;-45
2022/07/12 10:47:15;;;;;;;6.97;3.47;;;29.80;99.90;;;;;;4976121;28;20031;-45
2022/07/12 10:49:48;;;;;;;5.40;3.53;;;29.80;99.90;;;;;;4993584;28;20034;-45
2022/07/12 10:52:16;;;;;;;5.25;3.22;;;29.80;99.90;;;;;;4976022;28;20073;-46
2022/07/12 10:55:13;;;;;;;3.58;3.03;;;29.80;99.90;;;;;;4993513;28;20477;-46
2022/07/12 10:57:44;;;;;;;6.07;4.45;;;29.80;99.90;;;;;;4993301;28;20018;-46
2022/07/12 11:00:12;;;;;;;4.70;3.45;;;29.80;99.90;;;;;;4993176;28;20046;-46
2022/07/12 11:02:38;;;;;;;5.88;4.00;;;29.90;99.90;;;;;;4975942;28;20496;-45
2022/07/12 11:05:04;;;;;;;5.45;3.60;;;29.90;99.90;;;;;;4993178;28;20030;-46
2022/07/12 11:07:31;;;;;;;6.00;3.72;;;29.80;99.90;;;;;;4993411;28;20081;-46
2022/07/12 11:09:57;;;;;;;5.80;3.77;;;29.90;99.90;;;;;;4993352;28;20106;-46
2022/07/12 11:12:30;;;;;;;4.93;3.70;;;29.90;99.90;;;;;;4993226;28;20046;-49
2022/07/12 11:14:58;;;;;;;4.65;3.60;;;29.90;99.90;;;;;;4993285;28;20030;-46
2022/07/12 11:17:31;;;;;;;7.00;3.88;;;29.90;99.90;;;;;;4993092;28;20026;-46
2022/07/12 11:20:12;;;;;;;4.72;3.83;;;29.90;99.90;;;;;;4993207;28;20484;-46
2022/07/12 11:22:40;;;;;;;4.53;3.22;;;29.90;99.90;;;;;;4992898;28;20121;-45
2022/07/12 11:25:08;;;;;;;3.67;3.08;;;30.00;99.90;;;;;;4992981;28;20030;-46
2022/07/12 11:27:35;;;;;;;6.03;3.35;;;29.90;99.90;;;;;;4992921;28;20035;-46
2022/07/12 11:30:01;;;;;;;3.80;3.40;;;30.00;99.90;;;;;;4993132;28;20030;-46
2022/07/12 11:32:39;;;;;;;3.80;3.17;;;29.90;99.90;;;;;;4992921;28;20031;-46
2022/07/12 11:35:16;;;;;;;6.70;3.85;;;30.00;99.90;;;;;;4992620;28;20022;-46
2022/07/12 11:37:56;;;;;;;4.63;3.45;;;30.00;99.90;;;;;;4992672;28;20022;-46
2022/07/12 11:40:30;;;;;;;5.88;3.60;;;30.00;99.90;;;;;;4992721;28;20037;-46
2022/07/12 11:42:58;;;;;;;3.88;3.35;;;30.00;99.90;;;;;;4992518;28;20137;-46
2022/07/12 11:45:25;;;;;;;4.97;3.40;;;30.00;99.90;;;;;;4992164;28;20011;-45
2022/07/12 11:47:52;;;;;;;4.30;3.40;;;30.00;99.90;;;;;;4992500;28;20036;-46
2022/07/12 11:50:19;;;;;;;4.13;3.03;;;30.00;99.90;;;;;;4992410;28;20050;-45
2022/07/12 11:52:45;;;;;;;;;;;30.00;99.90;;;;;;4992749;28;20041;-45
2022/07/12 11:55:11;;;;;;;4.82;3.25;;;30.10;99.90;;;;;;4992388;28;19906;-45
2022/07/12 11:57:37;;;;;;;5.03;3.45;;;30.10;99.90;;;;;;4992346;28;20047;-46
2022/07/12 12:00:19;;;;;;;4.63;3.10;;;30.10;99.90;;;;;;4992357;28;20049;-46
2022/07/12 12:02:46;;;;;;;3.97;3.47;;;30.10;99.90;;;;;;4992396;28;20035;-45
2022/07/12 12:05:12;;;;;;;4.68;3.28;;;30.10;99.90;;;;;;4992299;28;20065;-46
2022/07/12 12:07:38;;;;;;;4.13;3.40;;;30.10;99.90;;;;;;4991661;28;20120;-46
2022/07/12 12:10:06;;;;;;;5.45;4.03;;;30.10;99.90;;;;;;4992425;28;20132;-45
2022/07/12 12:12:56;;;;;;;5.03;3.22;;;30.10;99.90;;;;;;4992223;28;20095;-45
2022/07/12 12:15:23;;;;;;;4.32;3.15;;;30.10;99.90;;;;;;4992129;28;20383;-45
2022/07/12 12:17:57;;;;;;;5.40;3.45;;;30.10;99.90;;;;;;4992134;28;20073;-45
2022/07/12 12:20:25;;;;;;;4.20;3.17;;;30.10;99.90;;;;;;4991886;28;20029;-46
2022/07/12 12:22:55;;;;;;;4.90;3.30;;;30.10;99.90;;;;;;4991974;28;20026;-45
2022/07/12 12:25:23;;;;;;;5.07;3.85;;;30.10;99.90;;;;;;4974450;28;20030;-44
2022/07/12 12:28:00;;;;;;;4.80;3.35;;;30.10;99.90;;;;;;4991927;28;20165;-45
2022/07/12 12:30:26;;;;;;;;;;;30.20;99.90;;;;;;4992326;28;20034;-45
2022/07/12 12:32:57;;;;;;;4.50;3.30;;;30.10;99.90;;;;;;4991748;28;20383;-45
2022/07/12 12:35:37;;;;;;;4.55;2.90;;;30.20;99.90;;;;;;4991756;28;20291;-45
2022/07/12 12:38:11;;;;;;;3.72;3.25;;;30.20;99.90;;;;;;4992017;28;20030;-45
2022/07/12 12:40:37;;;;;;;3.45;3.03;;;30.20;99.90;;;;;;4991777;28;20080;-45
2022/07/12 12:43:10;;;;;;;4.07;2.97;;;30.20;99.90;;;;;;4991765;28;20034;-45
2022/07/12 12:45:48;;;;;;;6.25;3.88;;;30.20;99.90;;;;;;4991459;28;20022;-45
2022/07/12 12:48:18;;;;;;;5.22;3.45;;;30.20;99.90;;;;;;4991502;28;20026;-45
2022/07/12 12:50:46;;;;;;;5.15;3.58;;;30.20;99.90;;;;;;4991754;28;20084;-45
2022/07/12 12:53:20;;;;;;;6.07;3.70;;;30.20;99.90;;;;;;4991483;28;20069;-50
2022/07/12 12:55:48;;;;;;;4.30;3.40;;;30.20;99.90;;;;;;4991713;28;20377;-46
2022/07/12 12:58:15;;;;;;;3.63;3.33;;;30.20;99.90;;;;;;4994927;28;20162;-53
2022/07/12 13:00:43;;;;;;;3.53;3.22;;;30.20;99.90;;;;;;4995567;28;20089;-45
2022/07/12 13:03:10;;;;;;;4.38;3.17;;;30.20;99.90;;;;;;4995491;28;20472;-46